AirNav   Air Wisconsin pilot careers
 
 536 users online  

PS01 Sterling Heliport
Croydon, Pennsylvania, USA

GOING TO CROYDON?


FAA INFORMATION EFFECTIVE 06 DECEMBER 2018

Location

FAA Identifier: PS01
Lat/Long: 40-04-52.6000N / 074-53-39.2000W
40-04.876667N / 074-53.653333W
40.0812778 / -74.8942222
(estimated)
Elevation: 24 ft. / 7 m (estimated)
From city: 1 mile SE of CROYDON, PA
Time zone: UTC -5 (UTC -4 during Daylight Saving Time)
Zip code: 19021

Heliport Operations

Heliport use: Private use. Permission required prior to landing
Activation date: 10/2006
Control tower: no
ARTCC: NEW YORK CENTER
FSS: WILLIAMSPORT FLIGHT SERVICE STATION
Attendance: MON-FRI 0800-1700
Wind indicator: yes
Segmented circle: no

Heliport Communications

WX ASOS at PNE (5 nm W): PHONE 215-677-0146
WX ASOS at VAY (9 nm S): 119.325 (609-267-1176)
WX ASOS at TTN (12 nm N): 126.775 (609-538-8690)
WX AWOS-3 at LOM (17 nm W): 118.925 (215-646-1068)
WX ASOS at DYL (18 nm NW): 118.875 (215-345-0392)

Nearby radio navigation aids

VOR radial/distance  VOR name  Freq  Var
ARDr187/10.3YARDLEY VOR/DME108.2010W
GXUr299/14.3MC GUIRE VORTAC110.6012W
RBVr258/19.7ROBBINSVILLE VORTAC113.8010W
CYNr317/26.5COYLE VORTAC113.4010W
SBJr203/30.9SOLBERG VOR/DME112.9010W
PTWr114/31.7POTTSTOWN VORTAC116.5009W
OODr045/32.7WOODSTOWN VORTAC112.8010W
VCNr016/32.8CEDAR LAKE VOR/DME115.2010W
COLr259/36.4COLTS NECK VOR/DME115.4011W
MXEr084/37.0MODENA VORTAC113.2009W

 
NDB name  Hdg/Dist  Freq  Var  ID
AMBLER110/18.127512WING .. -. --.
LAKEHURST286/25.839611WNEL -. . .-..

Heliport Services

Airframe service: MAJOR
Powerplant service: MAJOR

Runway Information

Helipad H1

Dimensions: 50 x 50 ft. / 15 x 15 m
Surface: concrete, in good condition
Traffic pattern: leftleft

Heliport Ownership and Management from official FAA records

Ownership: Privately-owned
Owner: STERLING HELICOPTER
1226 RIVER ROAD
CROYDON, PA 19021
Phone 215-271-2510
Manager: PHIL BIDDEN
1226 RIVER ROAD
CROYDON, PA 19021
Phone 215-271-2510

Additional Remarks

CALL PRIOR TO USE FOR PERMISSION, NOISE ABATEMENT PROC & PREF FLT ROUTE.
AVOID OVR FLT OF HOMES & SCHOOL 0.5 NM NE.
FOR CD CTC PHILADELPHIA APCH AT 800-354-9884.

Instrument Procedures

There are no published instrument procedures at PS01.

Some nearby airports with instrument procedures:

KPNE - Northeast Philadelphia Airport (5 nm W)
KVAY - South Jersey Regional Airport (9 nm S)
N14 - Flying W Airport (10 nm SE)
KTTN - Trenton Mercer Airport (12 nm N)
N73 - Red Lion Airport (13 nm SE)
KWRI - McGuire Field (Joint Base Mc Guire Dix Lakehurst) Airport (14 nm E)
N87 - Trenton-Robbinsville Airport (16 nm NE)
KLOM - Wings Field Airport (17 nm W)
19N - Camden County Airport (18 nm S)
KDYL - Doylestown Airport (18 nm NW)
 
Loc | Ops | Rwys | IFR | FBO | Links
Com | Nav | Svcs | Stats | Notes


 
Area around PS01 (Sterling Heliport)
 
Road maps at: MapQuest Bing Google
 
Aerial photo
No photo
 
Sectional chart

 
Airport distance calculator
Flying to Sterling Heliport? Find the distance to fly.

From to PS01

Sunrise and sunset
Times for 10-Dec-2018
 Local
(UTC-5)
 Zulu
(UTC)
Morning civil twilight06:4111:41
Sunrise07:1212:12
Sunset16:3321:33
Evening civil twilight17:0322:03

Current date and time
Zulu (UTC)  10-Dec-2018 12:20:36
Local (UTC-5)  10-Dec-2018 07:20:36
 
METAR
KPNE 
6nm W 
101154Z 36007KT 10SM CLR M03/M08 A3014 RMK AO2 SLP206 T10281083 11017 21044 53010
KVAY 
9nm S 
ASOS 119.325 609-267-1176
101154Z AUTO 35003KT 10SM CLR M06/M09 A3012 RMK AO2 SLP201 T10561089 11028 21056 53014
KTTN 
13nm N 
ASOS 133.70 609-538-8690
101153Z 34005KT 10SM CLR M04/M08 A3011 RMK AO2 SLP192 T10391083 11028 21056 53009
KWRI 
15nm E 
101156Z 34005KT 10SM CLR M06/M09 A3009 RMK AO2A SLP191 T10631095 11031 21069 52015 RVRNO $
KLOM 
17nm W 
101155Z AUTO 00000KT 10SM CLR M06/M07 A3014 RMK AO1
KDYL 
18nm NW 
101154Z AUTO 01003KT 10SM CLR M06/M10 A3010 RMK AO2 SLP203 T10611100 11050 21067 53008
TAF
KPNE 
6nm W 
101120Z 1012/1112 36010KT P6SM FEW250 FM102300 01004KT P6SM SKC
KTTN 
13nm N 
101120Z 1012/1112 36008KT P6SM FEW250 FM110000 36003KT P6SM SKC
KWRI 
15nm E 
101000Z 1010/1116 VRB06KT 9999 FEW190 QNH3004INS BECMG 1013/1014 02015G20KT 9999 SKC QNH3013INS BECMG 1017/1018 01009KT 9999 SKC QNH3011INS TX03/1017Z TNM05/1108Z
NOTAMs
Click for the latest NOTAMs
NOTAMs are issued by the DoD/FAA and will open in a separate window not controlled by AirNav.

 

 
 

Would you like to see your business listed on this page?

 If your business provides an interesting product or service to pilots, flight crews, aircraft, or users of the Sterling Heliport, you should consider listing it here.  To start the listing process, click on the button below
 
Add a business
 

Other Pages about Sterling Heliport

Update a link
 
Copyright © AirNav, LLC. All rights reserved. Privacy Policy  Contact